Time;durP1;ratioP1;P1;durP2;ratioP2;P2;SDS_P1;SDS_P2;PMS_P1;PMS_P2;Temp;Humidity;BMP_temperature;BMP_pressure;BME280_temperature;BME280_humidity;BME280_pressure;Samples;Min_cycle;Max_cycle;Signal;HPM_P1;HPM_P2
2024/04/16 00:01:31;;;;;;;9.65;3.70;;;;;;;19.41;46.68;98491.16;5233538;27;20064;-93
2024/04/16 00:03:57;;;;;;;10.43;3.83;;;;;;;19.40;46.71;98503.19;5234180;27;19990;-94
2024/04/16 00:06:23;;;;;;;5.15;3.53;;;;;;;19.23;49.00;98492.59;5233426;27;20005;-92
2024/04/16 00:08:50;;;;;;;6.75;4.00;;;;;;;18.94;49.91;98475.41;5233278;27;20009;-92
2024/04/16 00:11:16;;;;;;;10.02;4.10;;;;;;;18.98;50.12;98498.13;5233021;27;20002;-92
2024/04/16 00:13:44;;;;;;;6.50;3.75;;;;;;;18.82;50.47;98480.91;5232628;27;20001;-92
2024/04/16 00:16:10;;;;;;;6.30;3.50;;;;;;;18.98;50.45;98511.78;5233948;27;19994;-93
2024/04/16 00:18:36;;;;;;;8.10;3.97;;;;;;;18.67;50.92;98472.28;5232322;27;20033;-92
2024/04/16 00:21:04;;;;;;;7.07;3.35;;;;;;;18.67;50.72;98482.41;5233142;27;20005;-92
2024/04/16 00:23:30;;;;;;;6.68;3.47;;;;;;;18.65;51.13;98484.66;5234656;27;20010;-92
2024/04/16 00:25:56;;;;;;;5.22;3.33;;;;;;;18.50;51.21;98480.72;5232462;27;20008;-91
2024/04/16 00:28:22;;;;;;;7.43;3.88;;;;;;;18.45;51.74;98484.47;5209609;27;19994;-92
2024/04/16 00:30:48;;;;;;;6.25;3.42;;;;;;;18.29;52.50;98492.53;5223748;27;20042;-93
2024/04/16 00:33:16;;;;;;;6.68;3.22;;;;;;;18.08;52.70;98480.97;5232748;27;19997;-93
2024/04/16 00:35:43;;;;;;;5.65;3.30;;;;;;;18.02;53.10;98485.84;5232891;27;20033;-93
2024/04/16 00:38:09;;;;;;;5.50;3.22;;;;;;;17.92;53.51;98481.63;5233864;27;19994;-93
2024/04/16 00:40:35;;;;;;;6.85;3.65;;;;;;;17.84;54.15;98503.53;5257412;27;19997;-93
2024/04/16 00:43:01;;;;;;;13.77;4.50;;;;;;;17.57;54.71;98487.44;5231610;27;19994;-92
2024/04/16 00:45:26;;;;;;;8.40;4.43;;;;;;;17.59;54.46;98506.16;5232347;27;20004;-92
2024/04/16 00:47:53;;;;;;;9.55;3.85;;;;;;;17.67;54.28;98493.59;5259205;27;20093;-93
2024/04/16 00:50:20;;;;;;;12.25;4.18;;;;;;;17.63;54.61;98495.41;5259799;27;19990;-93
2024/04/16 00:52:46;;;;;;;6.97;3.80;;;;;;;17.50;55.11;98494.59;5231298;27;19997;-92
2024/04/16 00:55:12;;;;;;;8.80;4.03;;;;;;;17.35;55.30;98479.69;5261153;27;20005;-91
2024/04/16 00:57:41;;;;;;;9.52;4.05;;;;;;;17.26;55.58;98474.31;5232779;27;19998;-92
2024/04/16 01:00:08;;;;;;;7.55;4.40;;;;;;;17.34;55.46;98484.31;5234206;27;20008;-92
2024/04/16 01:02:34;;;;;;;7.55;4.00;;;;;;;17.43;55.59;98497.03;5259781;27;19993;-91
2024/04/16 01:04:59;;;;;;;7.70;4.45;;;;;;;17.22;55.89;98467.16;5231923;27;19994;-91
2024/04/16 01:07:25;;;;;;;9.80;5.13;;;;;;;17.17;56.12;98473.59;5231586;27;20013;-92
2024/04/16 01:09:51;;;;;;;8.75;4.57;;;;;;;17.27;56.01;98486.78;5232038;27;20006;-92
2024/04/16 01:12:17;;;;;;;11.18;5.00;;;;;;;17.06;56.75;98459.63;5231167;27;20519;-93
2024/04/16 01:14:42;;;;;;;14.50;5.60;;;;;;;17.12;56.68;98487.41;5233459;27;20001;-93
2024/04/16 01:17:08;;;;;;;9.63;5.25;;;;;;;17.02;57.07;98476.94;5233715;27;20339;-90
2024/04/16 01:19:34;;;;;;;8.60;5.78;;;;;;;16.97;56.85;98469.78;5231869;27;19993;-92
2024/04/16 01:21:59;;;;;;;14.35;6.70;;;;;;;16.93;57.12;98468.84;5259755;27;20012;-91
2024/04/16 01:24:27;;;;;;;14.95;6.53;;;;;;;17.04;57.17;98482.84;5232408;27;20360;-91
2024/04/16 01:26:53;;;;;;;13.07;6.30;;;;;;;16.95;56.85;98467.41;5231928;27;19994;-94
2024/04/16 01:29:18;;;;;;;13.07;5.80;;;;;;;17.00;57.00;98479.22;5231412;27;20012;-92
2024/04/16 01:31:44;;;;;;;10.32;7.57;;;;;;;16.94;56.79;98467.72;5231631;27;19997;-91
2024/04/16 01:34:10;;;;;;;15.48;8.63;;;;;;;17.05;56.65;98489.88;5229801;27;19999;-92
2024/04/16 01:36:36;;;;;;;17.90;9.23;;;;;;;17.02;57.27;98488.63;5232547;27;20004;-90
2024/04/16 01:39:01;;;;;;;15.02;8.80;;;;;;;16.74;57.85;98472.78;5232407;27;20031;-92
2024/04/16 01:41:27;;;;;;;13.15;8.77;;;;;;;16.64;58.26;98484.06;5231885;27;20062;-92
2024/04/16 01:43:53;;;;;;;17.85;8.80;;;;;;;16.57;58.17;98476.44;5230880;27;19994;-91
2024/04/16 01:46:18;;;;;;;13.80;7.65;;;;;;;16.66;58.42;98497.31;5258719;27;20316;-93
2024/04/16 01:48:44;;;;;;;14.55;8.30;;;;;;;16.64;58.77;98494.13;5231802;27;19998;-92
2024/04/16 01:51:10;;;;;;;14.20;8.30;;;;;;;16.56;59.02;98483.00;5232436;27;20005;-92
2024/04/16 01:53:35;;;;;;;13.05;7.90;;;;;;;16.38;59.01;98464.44;5232745;27;19998;-92
2024/04/16 01:56:01;;;;;;;15.30;7.95;;;;;;;16.47;59.23;98481.47;5259487;27;19994;-91
2024/04/16 01:58:29;;;;;;;11.18;7.32;;;;;;;16.43;59.59;98488.69;5230962;27;20002;-92
2024/04/16 02:01:00;;;;;;;11.40;6.93;;;;;;;16.33;59.50;98474.38;5259412;27;19990;-92
2024/04/16 02:03:26;;;;;;;11.27;6.90;;;;;;;16.29;59.57;98484.28;5230384;27;19994;-93
2024/04/16 02:05:53;;;;;;;12.18;7.55;;;;;;;16.23;60.31;98492.94;5231681;27;19995;-93
2024/04/16 02:08:19;;;;;;;10.40;7.18;;;;;;;16.12;60.17;98487.91;5231845;27;20305;-92
2024/04/16 02:10:54;;;;;;;14.70;7.88;;;;;;;16.02;59.99;98474.69;5231394;27;20004;-92
2024/04/16 02:13:20;;;;;;;9.35;7.25;;;;;;;15.99;60.36;98480.75;5258541;27;20010;-93
2024/04/16 02:15:46;;;;;;;13.75;7.78;;;;;;;15.90;60.42;98475.38;5230396;27;20297;-92
2024/04/16 02:18:11;;;;;;;13.90;7.78;;;;;;;15.93;60.58;98480.13;5220340;27;20425;-91
2024/04/16 02:20:37;;;;;;;8.95;7.32;;;;;;;15.93;60.44;98485.56;5202583;27;20045;-94
2024/04/16 02:23:03;;;;;;;13.02;7.30;;;;;;;15.98;60.62;98494.66;5213557;27;20045;-91
2024/04/16 02:25:28;;;;;;;17.25;8.10;;;;;;;15.95;60.98;98498.81;5231034;27;20005;-91
2024/04/16 02:27:54;;;;;;;12.23;7.93;;;;;;;15.81;60.98;98474.59;5231268;27;20006;-92
2024/04/16 02:30:23;;;;;;;9.07;7.60;;;;;;;15.80;61.05;98477.66;5258325;27;20008;-91
2024/04/16 02:32:50;;;;;;;15.00;8.20;;;;;;;15.74;61.13;98474.31;5239818;27;19990;-91
2024/04/16 02:35:15;;;;;;;12.15;7.78;;;;;;;15.73;61.26;98476.22;5261773;27;20002;-92
2024/04/16 02:37:42;;;;;;;14.50;8.60;;;;;;;15.87;61.36;98496.94;5234006;27;20049;-93
2024/04/16 02:40:09;;;;;;;10.23;8.13;;;;;;;15.84;61.03;98501.09;5260454;27;20013;-92
2024/04/16 02:42:38;;;;;;;12.93;8.68;;;;;;;15.71;61.09;98473.00;5232267;27;20009;-91
2024/04/16 02:45:04;;;;;;;14.20;8.18;;;;;;;15.71;61.17;98477.66;5232581;27;20451;-92
2024/04/16 02:47:29;;;;;;;12.77;7.85;;;;;;;15.64;61.67;98496.34;5258534;27;19993;-92
2024/04/16 02:49:55;;;;;;;13.70;8.05;;;;;;;15.58;61.55;98493.00;5232407;27;19994;-93
2024/04/16 02:52:25;;;;;;;13.00;8.45;;;;;;;15.63;61.66;98509.13;5258957;27;20309;-92
2024/04/16 02:54:55;;;;;;;16.67;9.07;;;;;;;15.55;61.39;98489.00;5258230;27;19997;-92
2024/04/16 02:57:21;;;;;;;17.02;8.85;;;;;;;15.54;62.02;98500.19;5232367;27;20013;-92
2024/04/16 02:59:48;;;;;;;14.80;8.07;;;;;;;15.44;61.84;98486.97;5231701;27;20004;-92
2024/04/16 03:02:14;;;;;;;14.20;8.70;;;;;;;15.63;62.09;98513.75;5232078;27;20029;-92
2024/04/16 03:04:40;;;;;;;21.27;8.50;;;;;;;15.61;61.84;98505.94;5233531;27;20320;-91
2024/04/16 03:07:06;;;;;;;12.85;8.63;;;;;;;15.61;62.16;98524.13;5235000;27;20005;-92
2024/04/16 03:09:31;;;;;;;17.48;8.65;;;;;;;15.48;62.10;98515.84;5261618;27;19998;-92
2024/04/16 03:11:57;;;;;;;15.35;8.85;;;;;;;15.50;62.41;98519.03;5234552;27;20436;-93
2024/04/16 03:14:23;;;;;;;13.90;8.50;;;;;;;15.41;62.27;98520.97;5233619;27;20097;-92
2024/04/16 03:16:49;;;;;;;15.15;9.27;;;;;;;15.26;62.89;98502.47;5232669;27;20306;-92
2024/04/16 03:19:15;;;;;;;21.92;9.50;;;;;;;15.38;62.43;98516.19;5233663;27;20083;-90
2024/04/16 03:21:40;;;;;;;13.02;9.25;;;;;;;15.24;62.76;98513.63;5233393;27;20005;-91
2024/04/16 03:24:06;;;;;;;19.00;9.65;;;;;;;15.24;63.19;98502.78;5233508;27;20006;-92
2024/04/16 03:26:35;;;;;;;18.40;9.35;;;;;;;15.25;62.98;98514.44;5233479;27;20036;-91
2024/04/16 03:29:01;;;;;;;22.13;10.07;;;;;;;15.15;62.96;98513.66;5264097;27;20008;-92
2024/04/16 03:31:31;;;;;;;21.90;10.65;;;;;;;15.15;63.12;98510.94;5234186;27;20002;-91
2024/04/16 03:33:59;;;;;;;20.35;10.63;;;;;;;14.97;63.58;98505.84;5229697;27;20068;-93
2024/04/16 03:36:25;;;;;;;18.00;11.00;;;;;;;14.98;63.05;98527.19;5223746;27;19998;-95
2024/04/16 03:38:55;;;;;;;21.23;11.30;;;;;;;14.86;63.24;98513.50;5235326;27;20009;-95
2024/04/16 03:41:22;;;;;;;16.48;12.23;;;;;;;15.00;62.41;98522.25;5237001;27;20357;-95
2024/04/16 03:43:51;;;;;;;25.65;12.10;;;;;;;15.11;62.26;98520.81;5237436;27;19994;-95
2024/04/16 03:46:16;;;;;;;22.63;13.93;;;;;;;15.20;62.72;98533.59;5234959;27;19996;-93
2024/04/16 03:48:42;;;;;;;17.48;11.02;;;;;;;15.19;62.04;98518.41;5235142;27;19998;-95
2024/04/16 03:51:11;;;;;;;21.65;11.13;;;;;;;15.26;61.62;98524.97;5233972;27;19997;-94
2024/04/16 03:53:37;;;;;;;19.83;9.63;;;;;;;15.32;60.72;98514.75;5236295;27;20009;-94
2024/04/16 03:56:06;;;;;;;27.10;11.70;;;;;;;15.41;61.83;98539.16;5235969;27;20016;-94
2024/04/16 03:58:34;;;;;;;18.95;11.35;;;;;;;15.34;62.75;98539.66;5237314;27;19993;-93
2024/04/16 04:01:03;;;;;;;44.60;11.85;;;;;;;15.13;63.29;98543.00;5236583;27;19994;-95
2024/04/16 04:03:32;;;;;;;21.10;11.00;;;;;;;15.11;62.90;98534.38;5234737;27;20428;-94
2024/04/16 04:05:59;;;;;;;17.30;10.68;;;;;;;15.12;62.56;98537.88;5263294;27;19994;-95
2024/04/16 04:08:26;;;;;;;17.95;10.32;;;;;;;15.10;62.71;98532.78;5292305;27;19996;-94
2024/04/16 04:11:11;;;;;;;27.65;16.13;;;;;;;15.27;62.73;98550.97;5236325;27;19997;-95
2024/04/16 04:13:57;;;;;;;20.13;10.10;;;;;;;15.25;61.95;98541.53;5266888;27;20086;-94
2024/04/16 04:16:25;;;;;;;29.92;10.82;;;;;;;15.29;62.48;98577.75;5265089;27;19993;-94
2024/04/16 04:18:52;;;;;;;21.23;9.75;;;;;;;15.18;62.09;98555.59;5233315;27;20033;-92
2024/04/16 04:21:19;;;;;;;27.95;10.85;;;;;;;15.27;61.83;98566.44;5233940;27;20002;-94
2024/04/16 04:24:16;;;;;;;23.15;11.60;;;;;;;15.23;61.67;98562.75;5213505;27;20014;-93
2024/04/16 04:26:48;;;;;;;20.33;10.85;;;;;;;15.29;61.28;98556.06;5236165;27;19999;-93
2024/04/16 04:29:13;;;;;;;24.02;11.10;;;;;;;15.56;61.22;98579.34;5225119;27;20305;-92
2024/04/16 04:31:39;;;;;;;27.30;10.95;;;;;;;15.65;60.64;98582.06;5210871;27;20022;-93
2024/04/16 04:34:05;;;;;;;17.42;9.52;;;;;;;15.69;59.92;98569.47;5211240;27;20520;-91
2024/04/16 04:36:33;;;;;;;22.10;12.27;;;;;;;15.73;60.07;98578.56;5233256;27;20001;-93
2024/04/16 04:39:08;;;;;;;21.58;9.05;;;;;;;15.86;58.73;98574.06;5233436;27;20006;-92
2024/04/16 04:41:34;;;;;;;19.10;7.85;;;;;;;15.95;56.84;98582.97;5260351;27;20002;-92
2024/04/16 04:44:06;;;;;;;10.38;5.72;;;;;;;16.11;56.73;98588.69;5261779;27;20320;-92
2024/04/16 04:46:31;;;;;;;14.88;5.45;;;;;;;16.20;55.99;98607.69;5234262;27;20005;-91
2024/04/16 04:48:57;;;;;;;9.65;5.95;;;;;;;16.20;55.70;98586.75;5232016;27;20002;-92
2024/04/16 04:52:01;;;;;;;14.40;5.40;;;;;;;16.42;55.32;98604.72;5232683;27;20069;-92
2024/04/16 04:58:01;;;;;;;15.35;8.07;;;;;;;16.61;54.76;98607.03;5205518;27;20537;-91
2024/04/16 05:00:31;;;;;;;171.68;32.13;;;;;;;16.61;53.94;98609.75;5189533;27;20004;-95
2024/04/16 05:02:57;;;;;;;26.55;9.55;;;;;;;16.61;54.00;98598.88;5215743;27;20007;-95
2024/04/16 05:05:23;;;;;;;15.35;7.22;;;;;;;16.70;53.48;98593.41;5234325;27;19994;-92
2024/04/16 05:07:48;;;;;;;16.15;7.38;;;;;;;16.67;53.02;98592.13;5289462;27;20289;-93
2024/04/16 05:10:14;;;;;;;23.27;13.93;;;;;;;16.78;52.78;98595.28;5234429;27;20060;-94
2024/04/16 05:12:40;;;;;;;10.45;5.30;;;;;;;16.82;52.81;98598.97;5235756;27;19994;-95
2024/04/16 05:15:08;;;;;;;12.00;6.55;;;;;;;16.98;52.44;98604.63;5232979;27;19993;-95
2024/04/16 05:17:34;;;;;;;9.43;5.55;;;;;;;17.04;51.90;98607.97;5235120;27;20014;-95
2024/04/16 05:20:01;;;;;;;11.35;6.95;;;;;;;17.08;53.46;98601.53;5235447;27;20070;-95
2024/04/16 05:22:32;;;;;;;15.45;7.10;;;;;;;17.05;53.55;98591.28;5292610;27;20004;-95
2024/04/16 05:25:01;;;;;;;18.25;7.20;;;;;;;17.22;54.30;98603.97;5290863;27;19994;-93
2024/04/16 05:27:32;;;;;;;27.83;8.70;;;;;;;17.41;54.35;98600.81;5235086;27;20067;-95
2024/04/16 05:30:09;;;;;;;17.40;7.60;;;;;;;17.50;52.91;98587.91;5237629;27;20061;-96
2024/04/16 05:33:17;;;;;;;11.15;5.82;;;;;;;17.78;50.53;98590.88;5287623;27;20005;-92
2024/04/16 05:35:44;;;;;;;54.70;7.15;;;;;;;18.00;50.38;98580.72;5273429;27;20470;-93
2024/04/16 05:38:39;;;;;;;16.35;6.05;;;;;;;18.12;51.17;98580.75;5195286;27;20336;-94
2024/04/16 05:41:10;;;;;;;54.28;33.42;;;;;;;18.16;51.42;98583.59;5164382;27;20003;-92
2024/04/16 05:43:44;;;;;;;17.25;8.05;;;;;;;18.30;51.27;98580.53;5165369;27;20007;-92
2024/04/16 05:46:27;;;;;;;16.02;6.05;;;;;;;18.30;50.81;98559.56;5163657;27;20004;-92
2024/04/16 05:49:05;;;;;;;15.63;6.15;;;;;;;18.49;50.17;98594.44;5158495;27;20423;-94
2024/04/16 05:51:33;;;;;;;12.10;6.22;;;;;;;18.54;50.01;98575.09;5131339;27;19996;-95
2024/04/16 05:54:00;;;;;;;11.93;6.63;;;;;;;18.70;50.03;98585.34;5128828;27;20016;-94
2024/04/16 05:56:38;;;;;;;16.30;7.78;;;;;;;18.46;51.10;98551.47;5129895;27;19996;-94
2024/04/16 05:59:20;;;;;;;12.20;6.80;;;;;;;18.68;50.87;98563.06;5158634;27;20008;-93
2024/04/16 06:01:45;;;;;;;;;;;;;;;18.80;51.22;98575.91;5129735;27;20001;-91
2024/04/16 06:04:11;;;;;;;16.10;6.85;;;;;;;18.60;50.94;98559.31;5155018;27;19935;-92
2024/04/16 06:06:37;;;;;;;16.48;8.43;;;;;;;18.46;51.76;98545.25;5135039;27;20009;-92
2024/04/16 06:09:10;;;;;;;21.13;9.07;;;;;;;18.46;52.66;98556.16;5127140;27;20009;-91
2024/04/16 06:15:01;;;;;;;15.90;7.22;;;;;;;18.69;50.94;98542.84;5102811;28;20002;-93
2024/04/16 06:28:11;;;;;;;15.23;7.13;;;;;;;19.37;48.10;98564.75;5160495;27;20064;-92
2024/04/16 06:31:04;;;;;;;11.23;5.57;;;;;;;19.59;46.96;98568.09;5152546;27;20440;-93
2024/04/16 06:33:37;;;;;;;19.70;8.20;;;;;;;19.75;46.96;98543.56;5258760;27;20032;-93
2024/04/16 06:43:17;;;;;;;13.52;6.97;;;;;;;20.49;45.56;98554.78;5138183;27;19993;-95
2024/04/16 06:45:52;;;;;;;10.52;5.28;;;;;;;20.59;44.07;98531.63;5114248;27;20009;-95
2024/04/16 06:48:52;;;;;;;12.43;5.97;;;;;;;20.75;44.33;98534.31;5134098;27;20032;-96
2024/04/16 06:51:44;;;;;;;20.95;9.90;;;;;;;20.94;44.44;98558.97;5153403;27;20045;-91
2024/04/16 06:54:25;;;;;;;21.45;6.90;;;;;;;21.25;44.70;98557.28;5025110;28;20014;-95
2024/04/16 06:57:19;;;;;;;15.33;7.00;;;;;;;21.61;44.64;98576.41;5073580;28;20051;-95
2024/04/16 07:00:21;;;;;;;16.08;6.30;;;;;;;21.82;43.43;98579.56;5263718;27;20015;-93
2024/04/16 07:02:51;;;;;;;;;;;;;;;21.82;43.29;98574.06;5243172;27;20002;-96
2024/04/16 07:05:21;;;;;;;18.52;10.95;;;;;;;21.77;43.15;98564.22;5262329;27;19934;-95
2024/04/16 07:07:52;;;;;;;25.15;11.75;;;;;;;21.84;43.48;98546.31;5230946;27;20034;-96
2024/04/16 07:13:59;;;;;;;11.00;4.93;;;;;;;22.15;42.21;98565.25;5152670;27;20012;-96
2024/04/16 07:17:30;;;;;;;;;;;;;;;;;;;;;
2024/04/16 07:20:13;;;;;;;10.75;4.20;;;;;;;22.32;42.71;98536.56;5245646;27;19987;-94
2024/04/16 07:22:42;;;;;;;8.18;4.03;;;;;;;22.56;41.37;98546.38;5231337;27;20001;-95
2024/04/16 07:25:53;;;;;;;;;;;;;;;;;;;;;
2024/04/16 07:32:06;;;;;;;18.90;11.88;;;;;;;22.71;40.20;98519.13;5177961;27;20333;-95
2024/04/16 07:37:52;;;;;;;9.85;3.75;;;;;;;23.20;39.42;98535.50;5086069;28;20022;-96
2024/04/16 07:40:25;;;;;;;9.68;4.82;;;;;;;23.31;38.84;98534.84;5109744;27;20028;-93
2024/04/16 07:42:57;;;;;;;8.23;4.85;;;;;;;23.40;38.44;98530.63;5207723;27;20008;-92
2024/04/16 07:45:39;;;;;;;19.67;4.80;;;;;;;23.58;38.65;98528.09;5121730;27;20091;-95
2024/04/16 07:48:09;;;;;;;;;;;;;;;23.76;38.21;98547.56;5157715;27;20004;-93
2024/04/16 07:50:35;;;;;;;12.07;4.85;;;;;;;23.53;39.57;98511.97;5173203;27;19999;-94
2024/04/16 07:53:38;;;;;;;5.45;3.35;;;;;;;23.84;38.76;98528.38;5141398;27;20000;-93
2024/04/16 07:56:15;;;;;;;8.38;3.50;;;;;;;23.64;39.12;98511.25;5391583;21;20021;-93
2024/04/16 07:58:50;;;;;;;8.32;3.45;;;;;;;23.82;39.19;98498.50;5208690;27;20002;-92
2024/04/16 08:01:42;;;;;;;7.95;3.90;;;;;;;23.97;39.22;98511.22;5263679;27;19998;-90
2024/04/16 08:07:07;;;;;;;11.68;4.60;;;;;;;24.34;38.42;98509.53;5231277;27;20027;-95
2024/04/16 08:09:36;;;;;;;13.32;4.60;;;;;;;24.40;38.42;98494.25;5194875;27;20011;-95
2024/04/16 08:12:22;;;;;;;21.77;6.18;;;;;;;24.67;38.59;98505.84;5155658;27;19998;-92
2024/04/16 08:14:48;;;;;;;11.55;4.32;;;;;;;24.60;38.26;98495.59;5202752;27;20023;-92
2024/04/16 08:17:14;;;;;;;7.93;3.70;;;;;;;24.67;37.36;98496.81;5197140;27;20011;-89
2024/04/16 08:19:42;;;;;;;13.52;4.18;;;;;;;24.75;36.66;98468.94;5189210;27;20014;-87
2024/04/16 08:22:08;;;;;;;6.43;3.00;;;;;;;25.04;36.30;98482.84;5179791;27;20007;-89
2024/04/16 08:24:33;;;;;;;9.18;4.15;;;;;;;25.14;36.07;98484.84;5162264;27;20010;-91
2024/04/16 08:27:11;;;;;;;9.75;3.35;;;;;;;25.24;36.16;98472.31;5176317;27;20039;-89
2024/04/16 08:29:43;;;;;;;10.48;3.78;;;;;;;25.34;35.62;98468.81;5194392;27;20043;-93
2024/04/16 08:32:10;;;;;;;;;;;;;;;25.62;35.36;98486.59;5160805;27;20015;-93
2024/04/16 08:34:49;;;;;;;;;;;;;;;;;;;;;
2024/04/16 08:38:26;;;;;;;20.42;4.30;;;;;;;25.65;35.97;98454.69;5173044;27;20019;-94
2024/04/16 08:40:51;;;;;;;9.23;3.70;;;;;;;25.80;35.57;98459.81;5213837;22;20102;-96
2024/04/16 08:43:17;;;;;;;12.25;4.88;;;;;;;25.89;35.29;98467.72;5265319;27;20121;-94
2024/04/16 08:46:39;;;;;;;;;;;;;;;;;;;;;
2024/04/16 08:50:07;;;;;;;;;;;;;;;;;;;;;
2024/04/16 08:59:07;;;;;;;17.17;8.10;;;;;;;26.74;32.61;98474.34;5102072;28;20022;-96
2024/04/16 09:06:17;;;;;;;;;;;;;;;;;;;;;
2024/04/16 09:19:46;;;;;;;14.73;4.88;;;;;;;27.21;31.92;98424.44;4822786;29;20141;-96
2024/04/16 09:22:55;;;;;;;18.58;10.18;;;;;;;27.43;31.83;98449.97;4853513;29;20446;-96
2024/04/16 09:26:24;;;;;;;;;;;;;;;;;;;;;
2024/04/16 09:29:03;;;;;;;14.30;5.82;;;;;;;27.54;30.12;98430.56;4869917;29;20022;-96
2024/04/16 09:31:51;;;;;;;;;;;;;;;;;;;;;
2024/04/16 09:34:37;;;;;;;20.00;9.82;;;;;;;27.74;27.92;98405.91;4946000;29;19997;-95
2024/04/16 09:37:13;;;;;;;13.52;3.53;;;;;;;27.75;28.38;98393.66;4981431;28;20008;-96
2024/04/16 09:40:26;;;;;;;11.98;3.00;;;;;;;28.03;26.28;98420.31;5001424;28;20473;-94
2024/04/16 09:46:26;;;;;;;16.48;3.28;;;;;;;28.12;25.30;98387.41;5117146;27;20390;-95
2024/04/16 09:49:06;;;;;;;;;;;;;;;;;;;;;
2024/04/16 09:52:17;;;;;;;21.02;3.60;;;;;;;28.16;24.40;98381.81;5044233;27;20022;-94
2024/04/16 10:01:57;;;;;;;11.80;3.78;;;;;;;28.67;24.63;98391.19;5150345;27;20064;-95
2024/04/16 10:08:21;;;;;;;;;;;;;;;;;;;;;
2024/04/16 10:11:11;;;;;;;15.68;3.92;;;;;;;29.00;22.68;98358.28;4919043;29;20002;-96
2024/04/16 10:14:47;;;;;;;;;;;;;;;;;;;;;
2024/04/16 10:23:43;;;;;;;23.58;4.80;;;;;;;29.88;21.10;98364.88;4931169;29;20022;-94
2024/04/16 10:26:36;;;;;;;22.65;4.13;;;;;;;29.95;21.04;98350.88;4938269;28;20015;-94
2024/04/16 10:30:09;;;;;;;20.98;7.55;;;;;;;29.84;21.48;98339.19;5010394;28;20013;-95
2024/04/16 10:33:07;;;;;;;;;;;;;;;;;;;;;
2024/04/16 10:35:34;;;;;;;20.33;5.03;;;;;;;30.13;21.94;98317.22;5000536;28;20003;-94
2024/04/16 10:38:27;;;;;;;13.57;4.82;;;;;;;30.32;21.98;98301.78;4981051;28;20015;-96
2024/04/16 10:41:28;;;;;;;26.77;4.73;;;;;;;30.61;20.84;98296.44;4879555;29;20384;-93
2024/04/16 10:43:58;;;;;;;24.67;5.38;;;;;;;30.83;20.52;98293.94;4998518;28;20008;-95
2024/04/16 10:56:51;;;;;;;;;;;;;;;;;;;;;
2024/04/16 10:59:28;;;;;;;;;;;;;;;;;;;;;
2024/04/16 11:01:55;;;;;;;21.60;5.05;;;;;;;31.16;19.13;98292.00;4965063;28;20015;-92
2024/04/16 11:04:52;;;;;;;29.17;5.40;;;;;;;30.87;19.11;98271.63;4996075;27;20142;-92
2024/04/16 11:07:18;;;;;;;27.17;4.80;;;;;;;30.87;19.18;98272.44;5102059;27;20009;-91
2024/04/16 11:09:57;;;;;;;25.60;5.50;;;;;;;30.83;19.84;98258.59;5063859;28;20006;-92
2024/04/16 11:12:25;;;;;;;31.73;6.63;;;;;;;30.93;19.28;98272.72;5069503;28;20006;-93
2024/04/16 11:14:56;;;;;;;40.75;6.47;;;;;;;30.68;19.45;98260.16;5090579;28;20013;-92
2024/04/16 11:17:47;;;;;;;33.63;5.88;;;;;;;30.87;19.84;98264.09;5085061;28;20014;-93
2024/04/16 11:20:31;;;;;;;;;;;;;;;;;;;;;
2024/04/16 11:23:40;;;;;;;33.08;6.65;;;;;;;30.84;18.87;98245.50;5089237;27;20020;-92
2024/04/16 11:26:15;;;;;;;28.60;5.75;;;;;;;30.96;18.76;98261.53;5064911;28;19995;-93
2024/04/16 11:28:49;;;;;;;43.45;11.63;;;;;;;30.92;19.75;98252.47;5009717;28;20007;-92
2024/04/16 11:31:21;;;;;;;30.50;6.60;;;;;;;31.14;19.01;98261.06;5029765;28;20039;-95
2024/04/16 11:34:23;;;;;;;22.60;5.68;;;;;;;31.29;18.15;98257.94;5002165;28;20083;-94
2024/04/16 11:36:57;;;;;;;26.98;5.82;;;;;;;31.34;18.63;98240.72;5020917;28;20018;-94
2024/04/16 11:39:35;;;;;;;29.08;5.57;;;;;;;31.42;18.17;98231.00;5076679;28;20002;-89
2024/04/16 11:42:20;;;;;;;37.25;6.07;;;;;;;31.52;17.64;98235.50;5171202;22;20040;-93
2024/04/16 11:45:30;;;;;;;37.80;5.85;;;;;;;31.83;18.40;98254.53;5167308;27;20323;-94
2024/04/16 11:48:06;;;;;;;33.38;5.82;;;;;;;31.82;17.88;98234.28;5194030;27;20000;-93
2024/04/16 11:53:44;;;;;;;32.08;6.25;;;;;;;31.81;18.92;98223.59;5202666;22;20013;-94
2024/04/16 11:56:13;;;;;;;27.92;6.32;;;;;;;31.78;18.53;98244.75;5132259;27;20086;-95
2024/04/16 11:58:49;;;;;;;;;;;;;;;;;;;;;
2024/04/16 12:01:28;;;;;;;30.75;6.35;;;;;;;31.74;18.89;98223.78;5272022;22;20112;-92
2024/04/16 12:03:53;;;;;;;28.25;5.82;;;;;;;31.74;18.81;98224.56;5158166;27;20087;-89
2024/04/16 12:06:30;;;;;;;39.65;6.57;;;;;;;31.69;18.15;98213.19;5154108;27;20019;-93
2024/04/16 12:09:36;;;;;;;;;;;;;;;;;;;;;
2024/04/16 12:12:18;;;;;;;27.95;5.18;;;;;;;31.66;17.86;98214.84;5241826;22;20004;-93
2024/04/16 12:15:33;;;;;;;;;;;;;;;;;;;;;
2024/04/16 12:17:59;;;;;;;32.45;6.18;;;;;;;31.51;18.97;98217.25;5131137;27;20011;-92
2024/04/16 12:24:54;;;;;;;;;;;;;;;;;;;;;
2024/04/16 12:27:27;;;;;;;28.25;5.63;;;;;;;31.39;19.66;98223.50;5048799;28;20003;-92
2024/04/16 12:29:56;;;;;;;33.17;7.65;;;;;;;31.42;19.70;98223.41;5014489;28;20003;-94
2024/04/16 12:36:27;;;;;;;;;;;;;;;;;;;;;
2024/04/16 12:38:54;;;;;;;38.97;7.10;;;;;;;31.03;19.61;98202.19;5061883;28;20007;-94
2024/04/16 12:41:44;;;;;;;34.38;6.70;;;;;;;31.00;20.45;98191.91;5039878;28;20003;-96
2024/04/16 12:44:19;;;;;;;35.85;7.03;;;;;;;31.00;19.73;98203.84;5043856;28;19995;-96
2024/04/16 12:46:52;;;;;;;27.83;5.55;;;;;;;30.85;20.69;98185.91;5093103;28;20077;-94
2024/04/16 12:53:20;;;;;;;26.55;7.13;;;;;;;30.51;20.84;98189.88;5047563;28;20120;-93
2024/04/16 12:56:37;;;;;;;33.33;5.55;;;;;;;30.31;21.78;98180.81;5107082;28;20073;-96
2024/04/16 12:59:37;;;;;;;;;;;;;;;;;;;;;
2024/04/16 13:05:18;;;;;;;;;;;;;;;;;;;;;
2024/04/16 13:28:53;;;;;;;21.63;4.18;;;;;;;30.06;25.39;98181.34;5092656;28;20063;-95
2024/04/16 13:32:09;;;;;;;;;;;;;;;;;;;;;
2024/04/16 13:34:40;;;;;;;24.27;5.15;;;;;;;30.24;25.78;98142.84;5113268;27;20002;-91
2024/04/16 13:37:16;;;;;;;23.03;4.47;;;;;;;30.58;24.69;98141.69;5136576;27;20435;-92
2024/04/16 13:39:51;;;;;;;25.17;5.88;;;;;;;30.90;24.52;98146.50;5195234;27;20007;-96
2024/04/16 13:42:30;;;;;;;17.05;5.68;;;;;;;31.17;24.57;98154.53;5104368;27;20008;-93
2024/04/16 13:44:55;;;;;;;10.75;4.22;;;;;;;31.35;24.42;98154.03;5154165;27;20090;-94
2024/04/16 13:47:34;;;;;;;;;;;;;;;;;;;;;
2024/04/16 13:50:08;;;;;;;18.58;4.93;;;;;;;31.27;23.82;98140.78;5140720;27;20024;-94
2024/04/16 13:52:47;;;;;;;25.02;11.85;;;;;;;31.24;24.46;98136.09;5119191;28;20006;-95
2024/04/16 13:55:36;;;;;;;15.50;4.35;;;;;;;31.05;24.62;98137.81;5283276;22;20037;-96
2024/04/16 13:58:11;;;;;;;21.15;3.97;;;;;;;30.87;25.20;98133.47;5179359;27;20016;-96
2024/04/16 14:00:46;;;;;;;20.65;5.60;;;;;;;30.66;25.84;98114.53;5093215;27;20052;-94
2024/04/16 14:03:53;;;;;;;16.92;4.78;;;;;;;30.45;25.49;98124.16;5100669;27;20019;-94
2024/04/16 14:06:38;;;;;;;;;;;;;;;;;;;;;
2024/04/16 14:09:08;;;;;;;15.75;5.65;;;;;;;30.04;25.67;98120.69;5129762;27;20009;-91
2024/04/16 14:11:45;;;;;;;17.33;5.00;;;;;;;29.92;25.87;98119.34;5115474;28;20024;-92
2024/04/16 14:14:41;;;;;;;12.52;5.03;;;;;;;30.04;26.15;98123.47;5092806;28;20013;-94
2024/04/16 14:17:10;;;;;;;19.92;4.18;;;;;;;30.00;26.35;98112.44;5115480;28;20001;-95
2024/04/16 14:20:16;;;;;;;15.40;4.85;;;;;;;29.92;26.74;98119.34;5098627;28;20002;-95
2024/04/16 14:23:08;;;;;;;14.13;4.55;;;;;;;29.90;26.45;98110.66;5105460;27;20005;-96
2024/04/16 14:26:05;;;;;;;12.07;4.05;;;;;;;29.96;27.29;98117.28;5148362;27;20004;-96
2024/04/16 14:28:39;;;;;;;10.90;4.35;;;;;;;30.02;27.04;98121.13;5054123;27;20002;-96
2024/04/16 14:35:18;;;;;;;19.15;4.82;;;;;;;30.02;26.71;98098.13;5001374;28;20028;-96
2024/04/16 14:38:05;;;;;;;14.13;4.85;;;;;;;30.00;27.07;98111.66;4882246;29;20012;-95
2024/04/16 14:41:03;;;;;;;20.70;5.05;;;;;;;29.88;26.92;98092.91;4880412;29;20092;-94
2024/04/16 15:09:29;;;;;;;13.95;4.18;;;;;;;29.54;28.06;98094.75;5093969;28;20035;-94
2024/04/16 15:12:00;;;;;;;15.52;5.05;;;;;;;29.41;28.05;98085.53;5093585;28;20015;-96
2024/04/16 15:14:26;;;;;;;84.82;50.65;;;;;;;29.28;28.48;98088.16;5169082;27;19999;-94
2024/04/16 15:16:57;;;;;;;15.63;4.47;;;;;;;29.08;28.68;98092.88;5138427;27;19996;-91
2024/04/16 15:19:49;;;;;;;21.38;7.35;;;;;;;28.93;28.91;98084.81;5166664;27;20040;-95